createdAt,value
2022-09-14T00:01:25.254Z,16.08
2022-09-14T00:03:55.586Z,16.04
2022-09-14T00:06:22.874Z,15.98
2022-09-14T00:08:52.696Z,15.91
2022-09-14T00:11:20.897Z,15.87
2022-09-14T00:13:48.654Z,15.84
2022-09-14T00:16:18.617Z,15.78
2022-09-14T00:18:45.414Z,15.67
2022-09-14T00:21:12.763Z,15.51
2022-09-14T00:23:41.559Z,15.45
2022-09-14T00:26:11.367Z,15.41
2022-09-14T00:28:58.522Z,15.36
2022-09-14T00:31:26.246Z,15.33
2022-09-14T00:33:53.650Z,15.30
2022-09-14T00:36:25.141Z,15.29
2022-09-14T00:38:53.150Z,15.24
2022-09-14T00:41:23.053Z,15.24
2022-09-14T00:44:06.950Z,15.25
2022-09-14T00:46:47.908Z,15.27
2022-09-14T00:49:16.819Z,15.20
2022-09-14T00:51:59.215Z,15.27
2022-09-14T00:54:26.545Z,15.23
2022-09-14T00:56:53.645Z,15.21
2022-09-14T00:59:23.189Z,15.22
2022-09-14T01:01:50.692Z,15.18
2022-09-14T01:04:17.517Z,15.18
2022-09-14T01:06:53.365Z,15.11
2022-09-14T01:09:27.770Z,15.04
2022-09-14T01:12:14.231Z,15.06
2022-09-14T01:14:46.232Z,15.03
2022-09-14T01:17:16.193Z,14.99
2022-09-14T01:20:11.884Z,14.96
2022-09-14T01:23:07.554Z,15.01
2022-09-14T01:25:39.421Z,15.01
2022-09-14T01:28:14.065Z,15.00
2022-09-14T01:30:43.680Z,14.99
2022-09-14T01:33:18.363Z,14.95
2022-09-14T01:35:51.109Z,14.98
2022-09-14T01:38:24.325Z,14.98
2022-09-14T01:40:51.401Z,15.02
2022-09-14T01:43:23.726Z,15.04
2022-09-14T01:45:56.029Z,15.05
2022-09-14T01:48:43.065Z,15.09
2022-09-14T01:51:16.165Z,15.10
2022-09-14T01:53:53.188Z,15.00
2022-09-14T01:56:24.315Z,15.06
2022-09-14T01:59:00.302Z,15.04
2022-09-14T02:01:39.624Z,14.96
2022-09-14T02:04:11.237Z,14.93
2022-09-14T02:06:42.661Z,14.92
2022-09-14T02:09:13.993Z,14.91
2022-09-14T02:11:40.946Z,14.90
2022-09-14T02:14:07.754Z,14.92
2022-09-14T02:16:34.959Z,14.91
2022-09-14T02:19:02.029Z,14.98
2022-09-14T02:21:31.245Z,15.01
2022-09-14T02:23:59.343Z,15.01
2022-09-14T02:26:26.642Z,14.99
2022-09-14T02:28:56.004Z,14.97
2022-09-14T02:31:31.479Z,15.00
2022-09-14T02:34:34.337Z,14.99
2022-09-14T02:37:08.683Z,14.90
2022-09-14T02:39:53.302Z,14.89
2022-09-14T02:42:20.017Z,14.83
2022-09-14T02:45:11.262Z,14.80
2022-09-14T02:48:18.292Z,14.76
2022-09-14T02:50:52.476Z,14.68
2022-09-14T02:53:27.351Z,14.71
2022-09-14T02:56:01.397Z,14.70
2022-09-14T02:58:43.121Z,14.70
2022-09-14T03:01:13.185Z,14.66
2022-09-14T03:03:40.450Z,14.68
2022-09-14T03:06:06.996Z,14.67
2022-09-14T03:08:33.971Z,14.60
2022-09-14T03:11:00.833Z,14.65
2022-09-14T03:13:27.691Z,14.63
2022-09-14T03:15:54.854Z,14.59
2022-09-14T03:18:21.606Z,14.57
2022-09-14T03:20:48.342Z,14.59
2022-09-14T03:23:15.299Z,14.60
2022-09-14T03:25:44.237Z,14.58
2022-09-14T03:28:12.474Z,14.51
2022-09-14T03:30:39.411Z,14.52
2022-09-14T03:33:06.592Z,14.48
2022-09-14T03:35:33.237Z,14.52
2022-09-14T03:38:00.014Z,14.52
2022-09-14T03:40:27.694Z,14.54
2022-09-14T03:42:54.773Z,14.49
2022-09-14T03:45:21.741Z,14.57
2022-09-14T03:47:48.851Z,14.55
2022-09-14T03:50:16.020Z,14.58
2022-09-14T03:52:42.933Z,14.58
2022-09-14T03:55:10.327Z,14.55
2022-09-14T03:57:37.602Z,14.55
2022-09-14T04:00:06.050Z,14.50
2022-09-14T04:02:38.367Z,14.53
2022-09-14T04:05:06.547Z,14.54
2022-09-14T04:07:33.564Z,14.55
2022-09-14T04:10:00.283Z,14.52
2022-09-14T04:12:27.006Z,14.55
2022-09-14T04:14:53.693Z,14.56
2022-09-14T04:17:20.374Z,14.57
2022-09-14T04:19:47.173Z,14.55
2022-09-14T04:22:14.302Z,14.52
2022-09-14T04:24:40.884Z,14.49
2022-09-14T04:27:07.604Z,14.46
2022-09-14T04:29:34.325Z,14.44
2022-09-14T04:32:01.170Z,14.40
2022-09-14T04:34:28.057Z,14.41
2022-09-14T04:36:54.904Z,14.44
2022-09-14T04:39:22.408Z,14.44
2022-09-14T04:41:49.507Z,14.44
2022-09-14T04:44:17.386Z,14.43
2022-09-14T04:46:46.840Z,14.37
2022-09-14T04:49:18.969Z,14.35
2022-09-14T04:51:45.782Z,14.24
2022-09-14T04:54:16.004Z,14.34
2022-09-14T04:56:43.263Z,14.33
2022-09-14T04:59:10.324Z,14.37
2022-09-14T05:01:41.205Z,14.38
2022-09-14T05:04:09.103Z,14.39
2022-09-14T05:06:38.418Z,14.36
2022-09-14T05:09:08.236Z,14.40
2022-09-14T05:11:36.497Z,14.36
2022-09-14T05:14:03.824Z,14.39
2022-09-14T05:16:32.944Z,14.47
2022-09-14T05:19:02.345Z,14.53
2022-09-14T05:21:31.570Z,14.64
2022-09-14T05:24:06.549Z,14.72
2022-09-14T05:26:34.027Z,14.75
2022-09-14T05:29:02.253Z,14.85
2022-09-14T05:31:31.123Z,14.93
2022-09-14T05:33:59.385Z,14.97
2022-09-14T05:36:26.783Z,14.99
2022-09-14T05:38:53.754Z,15.07
2022-09-14T05:41:20.469Z,15.15
2022-09-14T05:43:47.218Z,15.26
2022-09-14T05:46:17.013Z,15.29
2022-09-14T05:48:44.105Z,15.36
2022-09-14T05:51:18.093Z,15.44
2022-09-14T05:53:52.573Z,15.50
2022-09-14T05:56:21.074Z,15.65
2022-09-14T05:58:48.190Z,15.73
2022-09-14T06:01:28.885Z,15.81
2022-09-14T06:03:57.948Z,15.77
2022-09-14T06:06:25.026Z,15.86
2022-09-14T06:08:54.254Z,16.05
2022-09-14T06:11:28.851Z,16.15
2022-09-14T06:13:56.671Z,16.30
2022-09-14T06:16:25.567Z,16.23
2022-09-14T06:18:53.824Z,16.45
2022-09-14T06:21:22.212Z,16.55
2022-09-14T06:23:49.928Z,16.58
2022-09-14T06:26:17.188Z,16.63
2022-09-14T06:28:44.292Z,16.60
2022-09-14T06:31:14.432Z,16.74
2022-09-14T06:33:46.085Z,16.84
2022-09-14T06:36:15.253Z,16.87
2022-09-14T06:38:42.764Z,16.97
2022-09-14T06:41:12.430Z,17.08
2022-09-14T06:43:40.403Z,17.07
2022-09-14T06:46:19.532Z,17.09
2022-09-14T06:48:58.465Z,17.07
2022-09-14T06:51:36.605Z,17.06
2022-09-14T06:54:04.522Z,17.11
2022-09-14T06:56:33.759Z,17.09
2022-09-14T06:59:00.538Z,17.20
2022-09-14T07:01:27.978Z,17.31
2022-09-14T07:03:55.223Z,17.51
2022-09-14T07:06:25.002Z,17.79
2022-09-14T07:08:53.272Z,17.92
2022-09-14T07:11:23.580Z,18.11
2022-09-14T07:13:50.595Z,18.21
2022-09-14T07:16:17.146Z,18.42
2022-09-14T07:18:43.942Z,18.65
2022-09-14T07:21:19.293Z,18.78
2022-09-14T07:23:47.637Z,18.88
2022-09-14T07:26:15.726Z,18.98
2022-09-14T07:28:44.373Z,19.23
2022-09-14T07:31:15.857Z,19.26
2022-09-14T07:33:42.639Z,19.33
2022-09-14T07:36:11.652Z,19.47
2022-09-14T07:38:52.154Z,19.85
2022-09-14T07:41:28.195Z,19.91
2022-09-14T07:44:00.189Z,20.08
2022-09-14T07:46:30.510Z,20.12
2022-09-14T07:49:00.361Z,20.49
2022-09-14T07:51:28.902Z,20.77
2022-09-14T07:53:56.144Z,20.68
2022-09-14T07:56:23.121Z,21.01
2022-09-14T07:58:55.389Z,21.42
2022-09-14T08:01:23.755Z,21.87
2022-09-14T08:03:50.548Z,22.23
2022-09-14T08:06:20.147Z,22.16
2022-09-14T08:08:48.719Z,21.88
2022-09-14T08:11:19.443Z,21.88
2022-09-14T08:13:55.456Z,21.87
2022-09-14T08:16:23.292Z,21.89
2022-09-14T08:18:59.941Z,21.86
2022-09-14T08:21:29.186Z,22.27
2022-09-14T08:23:57.871Z,22.62
2022-09-14T08:26:26.828Z,23.08
2022-09-14T08:28:55.013Z,23.49
2022-09-14T08:31:26.147Z,23.86
2022-09-14T08:33:58.592Z,24.26
2022-09-14T08:36:27.522Z,24.43
2022-09-14T08:38:54.305Z,23.98
2022-09-14T08:41:35.561Z,24.23
2022-09-14T08:44:13.991Z,23.68
2022-09-14T08:46:44.571Z,23.69
2022-09-14T08:49:20.647Z,23.71
2022-09-14T08:51:47.395Z,23.50
2022-09-14T08:54:13.890Z,23.70
2022-09-14T08:56:44.751Z,23.72
2022-09-14T08:59:37.285Z,23.68
2022-09-14T09:02:42.687Z,23.97
2022-09-14T09:05:33.673Z,24.54
2022-09-14T09:08:18.594Z,24.65
2022-09-14T09:10:47.665Z,24.51
2022-09-14T09:13:21.290Z,24.36
2022-09-14T09:15:51.846Z,24.37
2022-09-14T09:18:46.874Z,24.55
2022-09-14T09:21:31.982Z,24.63
2022-09-14T09:24:26.299Z,24.55
2022-09-14T09:26:53.172Z,24.46
2022-09-14T09:29:19.793Z,24.60
2022-09-14T09:32:08.110Z,24.76
2022-09-14T09:34:58.097Z,24.91
2022-09-14T09:37:40.548Z,25.14
2022-09-14T09:40:38.072Z,25.32
2022-09-14T09:43:06.386Z,25.42
2022-09-14T09:46:09.532Z,25.15
2022-09-14T09:48:43.187Z,25.23
2022-09-14T09:51:14.799Z,25.38
2022-09-14T09:53:51.618Z,25.54
2022-09-14T09:56:25.665Z,25.44
2022-09-14T09:58:52.436Z,25.39
2022-09-14T10:01:34.551Z,25.17
2022-09-14T10:04:16.041Z,25.23
2022-09-14T10:06:47.702Z,25.46
2022-09-14T10:09:17.439Z,25.63
2022-09-14T10:11:46.138Z,25.87
2022-09-14T10:14:33.300Z,26.06
2022-09-14T10:17:08.766Z,25.82
2022-09-14T10:19:35.571Z,25.96
2022-09-14T10:22:26.704Z,26.35
2022-09-14T10:25:02.129Z,26.41
2022-09-14T10:27:56.448Z,26.06
2022-09-14T10:30:38.294Z,26.10
2022-09-14T10:33:15.201Z,26.13
2022-09-14T10:36:02.127Z,26.20
2022-09-14T10:38:33.632Z,26.48
2022-09-14T10:41:20.579Z,26.41
2022-09-14T10:44:22.790Z,26.41
2022-09-14T10:47:07.698Z,26.16
2022-09-14T10:49:49.606Z,26.07
2022-09-14T10:52:58.297Z,25.90
2022-09-14T10:55:48.414Z,25.84
2022-09-14T10:58:40.021Z,25.93
2022-09-14T11:01:28.325Z,26.05
2022-09-14T11:04:19.218Z,26.03
2022-09-14T11:07:01.739Z,26.15
2022-09-14T11:09:33.581Z,26.44
2022-09-14T11:12:17.668Z,26.61
2022-09-14T11:15:27.916Z,26.62
2022-09-14T11:18:31.410Z,26.69
2022-09-14T11:21:43.252Z,26.47
2022-09-14T11:24:29.807Z,26.50
2022-09-14T11:27:04.860Z,26.52
2022-09-14T11:29:44.560Z,26.74
2022-09-14T11:32:21.451Z,26.58
2022-09-14T11:34:56.836Z,27.07
2022-09-14T11:37:53.933Z,27.47
2022-09-14T11:40:24.960Z,27.30
2022-09-14T11:43:08.721Z,27.00
2022-09-14T11:45:43.805Z,27.10
2022-09-14T11:48:42.003Z,26.84
2022-09-14T11:51:22.564Z,27.06
2022-09-14T11:53:50.976Z,27.08
2022-09-14T11:56:26.869Z,27.41
2022-09-14T11:58:56.992Z,27.61
2022-09-14T12:01:36.556Z,27.83
2022-09-14T12:04:12.385Z,27.78
2022-09-14T12:06:39.091Z,28.09
2022-09-14T12:09:17.940Z,28.13
2022-09-14T12:11:45.877Z,28.35
2022-09-14T12:14:31.427Z,28.65
2022-09-14T12:17:39.392Z,28.90
2022-09-14T12:20:31.786Z,28.60
2022-09-14T12:23:27.307Z,28.70
2022-09-14T12:26:06.070Z,28.38
2022-09-14T12:28:35.613Z,28.55
2022-09-14T12:31:05.162Z,28.24
2022-09-14T12:33:32.229Z,28.20
2022-09-14T12:36:05.486Z,28.42
2022-09-14T12:38:32.149Z,28.61
2022-09-14T12:41:23.034Z,28.69
2022-09-14T12:43:50.354Z,29.11
2022-09-14T12:46:20.245Z,28.87
2022-09-14T12:48:47.031Z,29.25
2022-09-14T12:51:28.925Z,29.19
2022-09-14T12:54:00.812Z,29.50
2022-09-14T12:56:35.323Z,29.89
2022-09-14T12:59:14.063Z,30.13
2022-09-14T13:01:46.637Z,29.91
2022-09-14T13:04:22.312Z,29.55
2022-09-14T13:06:49.754Z,29.63
2022-09-14T13:09:24.918Z,29.64
2022-09-14T13:12:07.569Z,29.93
2022-09-14T13:14:55.554Z,30.67
2022-09-14T13:17:23.060Z,30.44
2022-09-14T13:19:58.638Z,29.76
2022-09-14T13:22:29.447Z,29.76
2022-09-14T13:24:59.025Z,29.99
2022-09-14T13:27:29.579Z,29.88
2022-09-14T13:30:11.477Z,29.98
2022-09-14T13:32:47.248Z,30.09
2022-09-14T13:35:24.762Z,30.58
2022-09-14T13:37:51.582Z,31.18
2022-09-14T13:40:24.055Z,31.69
2022-09-14T13:42:51.088Z,31.85
2022-09-14T13:45:17.832Z,31.82
2022-09-14T13:47:44.589Z,31.57
2022-09-14T13:50:13.642Z,31.12
2022-09-14T13:53:02.536Z,30.85
2022-09-14T13:55:42.968Z,31.02
2022-09-14T13:58:09.688Z,30.89
2022-09-14T14:00:57.638Z,30.69
2022-09-14T14:03:36.279Z,30.88
2022-09-14T14:06:37.927Z,30.46
2022-09-14T14:09:11.150Z,30.63
2022-09-14T14:11:48.204Z,30.67
2022-09-14T14:14:22.497Z,30.98
2022-09-14T14:17:13.838Z,30.60
2022-09-14T14:19:40.721Z,30.28
2022-09-14T14:22:17.666Z,29.76
2022-09-14T14:25:12.297Z,29.50
2022-09-14T14:27:43.033Z,29.35
2022-09-14T14:30:19.485Z,29.35
2022-09-14T14:32:51.006Z,29.04
2022-09-14T14:35:23.308Z,28.98
2022-09-14T14:37:50.947Z,29.10
2022-09-14T14:40:18.919Z,29.12
2022-09-14T14:42:46.767Z,29.24
2022-09-14T14:45:19.817Z,29.80
2022-09-14T14:47:48.110Z,29.53
2022-09-14T14:50:19.988Z,29.31
2022-09-14T14:52:46.701Z,29.24
2022-09-14T14:55:13.601Z,29.23
2022-09-14T14:57:40.959Z,29.50
2022-09-14T15:00:14.661Z,29.84
2022-09-14T15:02:41.533Z,30.04
2022-09-14T15:05:08.714Z,29.96
2022-09-14T15:07:37.788Z,29.92
2022-09-14T15:10:05.945Z,29.98
2022-09-14T15:12:33.630Z,29.66
2022-09-14T15:15:00.676Z,29.11
2022-09-14T15:17:27.973Z,28.96
2022-09-14T15:19:54.667Z,28.77
2022-09-14T15:22:21.600Z,28.67
2022-09-14T15:24:48.336Z,28.55
2022-09-14T15:27:15.164Z,28.37
2022-09-14T15:29:41.929Z,28.27
2022-09-14T15:32:08.722Z,28.10
2022-09-14T15:34:35.505Z,28.15
2022-09-14T15:37:02.313Z,28.09
2022-09-14T15:39:31.644Z,27.96
2022-09-14T15:41:59.025Z,27.87
2022-09-14T15:44:25.972Z,28.04
2022-09-14T15:46:53.116Z,28.15
2022-09-14T15:49:22.936Z,28.23
2022-09-14T15:51:52.031Z,28.26
2022-09-14T15:54:23.036Z,28.50
2022-09-14T15:56:51.725Z,28.46
2022-09-14T15:59:19.070Z,28.31
2022-09-14T16:01:46.110Z,28.04
2022-09-14T16:04:13.050Z,27.59
2022-09-14T16:06:40.659Z,27.32
2022-09-14T16:09:10.169Z,27.08
2022-09-14T16:11:38.292Z,26.85
2022-09-14T16:14:07.175Z,26.73
2022-09-14T16:16:35.315Z,26.54
2022-09-14T16:19:15.349Z,26.12
2022-09-14T16:21:43.018Z,25.93
2022-09-14T16:24:18.177Z,25.80
2022-09-14T16:26:45.867Z,25.60
2022-09-14T16:29:14.893Z,25.52
2022-09-14T16:31:43.221Z,25.42
2022-09-14T16:34:22.920Z,25.48
2022-09-14T16:36:50.188Z,25.46
2022-09-14T16:39:23.038Z,25.49
2022-09-14T16:41:50.742Z,25.38
2022-09-14T16:44:23.625Z,25.33
2022-09-14T16:46:52.019Z,25.24
2022-09-14T16:49:23.489Z,25.27
2022-09-14T16:51:53.187Z,25.15
2022-09-14T16:54:21.972Z,25.09
2022-09-14T16:56:50.849Z,25.01
2022-09-14T16:59:17.954Z,24.90
2022-09-14T17:01:49.726Z,24.77
2022-09-14T17:04:22.060Z,24.73
2022-09-14T17:06:50.506Z,24.69
2022-09-14T17:09:21.118Z,24.54
2022-09-14T17:11:48.708Z,24.45
2022-09-14T17:14:18.962Z,24.37
2022-09-14T17:16:46.532Z,24.36
2022-09-14T17:19:13.639Z,24.31
2022-09-14T17:21:42.405Z,24.29
2022-09-14T17:24:09.908Z,24.22
2022-09-14T17:26:37.540Z,24.19
2022-09-14T17:29:05.386Z,24.19
2022-09-14T17:31:37.271Z,24.17
2022-09-14T17:34:07.396Z,24.10
2022-09-14T17:36:34.425Z,24.07
2022-09-14T17:39:02.578Z,24.05
2022-09-14T17:41:31.638Z,23.98
2022-09-14T17:46:29.668Z,23.89
2022-09-14T17:48:58.577Z,23.86
2022-09-14T17:51:27.469Z,23.80
2022-09-14T17:53:57.350Z,23.76
2022-09-14T17:56:26.763Z,23.70
2022-09-14T17:59:12.793Z,23.73
2022-09-14T18:01:39.585Z,23.88
2022-09-14T18:04:10.667Z,23.89
2022-09-14T18:06:40.258Z,23.89
2022-09-14T18:09:17.369Z,23.88
2022-09-14T18:11:44.155Z,23.87
2022-09-14T18:14:13.008Z,23.82
2022-09-14T18:16:40.563Z,23.70
2022-09-14T18:19:07.653Z,23.66
2022-09-14T18:21:34.462Z,23.63
2022-09-14T18:24:01.323Z,23.59
2022-09-14T18:26:28.027Z,23.52
2022-09-14T18:28:56.236Z,23.46
2022-09-14T18:31:24.793Z,23.34
2022-09-14T18:33:59.051Z,23.21
2022-09-14T18:36:28.997Z,23.14
2022-09-14T18:38:57.099Z,23.06
2022-09-14T18:41:24.243Z,23.04
2022-09-14T18:43:52.542Z,23.03
2022-09-14T18:46:22.478Z,22.93
2022-09-14T18:48:54.337Z,22.83
2022-09-14T18:51:21.773Z,22.64
2022-09-14T18:53:49.074Z,22.50
2022-09-14T18:56:17.660Z,22.38
2022-09-14T18:58:46.936Z,22.11
2022-09-14T19:01:14.590Z,21.69
2022-09-14T19:03:43.159Z,21.72
2022-09-14T19:06:13.820Z,22.10
2022-09-14T19:08:41.530Z,22.09
2022-09-14T19:11:28.763Z,22.03
2022-09-14T19:14:07.322Z,22.01
2022-09-14T19:16:34.122Z,22.09
2022-09-14T19:19:00.733Z,22.09
2022-09-14T19:21:29.794Z,22.10
2022-09-14T19:24:03.148Z,22.07
2022-09-14T19:26:32.743Z,22.08
2022-09-14T19:29:01.490Z,22.14
2022-09-14T19:31:30.594Z,22.34
2022-09-14T19:34:01.371Z,22.45
2022-09-14T19:36:29.038Z,22.62
2022-09-14T19:38:57.354Z,22.75
2022-09-14T19:41:25.362Z,22.88
2022-09-14T19:43:52.139Z,22.90
2022-09-14T19:46:20.452Z,22.92
2022-09-14T19:48:47.558Z,22.87
2022-09-14T19:51:17.237Z,22.85
2022-09-14T19:53:48.338Z,22.81
2022-09-14T19:56:17.326Z,22.57
2022-09-14T19:58:47.541Z,22.55
2022-09-14T20:01:16.787Z,22.57
2022-09-14T20:03:44.781Z,22.81
2022-09-14T20:06:21.204Z,23.16
2022-09-14T20:08:49.557Z,23.25
2022-09-14T20:11:20.081Z,23.28
2022-09-14T20:13:48.552Z,23.27
2022-09-14T20:16:25.162Z,23.35
2022-09-14T20:18:52.458Z,23.25
2022-09-14T20:21:22.595Z,23.43
2022-09-14T20:24:15.078Z,23.37
2022-09-14T20:26:43.696Z,23.18
2022-09-14T20:29:11.222Z,22.97
2022-09-14T20:31:38.366Z,22.68
2022-09-14T20:34:05.705Z,22.33
2022-09-14T20:36:33.317Z,21.60
2022-09-14T20:39:00.662Z,21.60
2022-09-14T20:41:31.737Z,21.64
2022-09-14T20:43:58.522Z,21.66
2022-09-14T20:46:35.274Z,21.65
2022-09-14T20:49:04.585Z,21.62
2022-09-14T20:51:31.650Z,21.64
2022-09-14T20:53:58.481Z,21.82
2022-09-14T20:56:26.592Z,21.74
2022-09-14T20:58:55.680Z,21.65
2022-09-14T21:01:24.739Z,21.70
2022-09-14T21:03:51.953Z,21.65
2022-09-14T21:06:25.545Z,21.66
2022-09-14T21:08:52.852Z,21.47
2022-09-14T21:11:25.337Z,21.31
2022-09-14T21:13:53.807Z,21.29
2022-09-14T21:16:26.258Z,21.41
2022-09-14T21:19:07.927Z,21.52
2022-09-14T21:21:35.332Z,21.67
2022-09-14T21:24:02.785Z,21.71
2022-09-14T21:26:33.935Z,21.73
2022-09-14T21:29:03.406Z,21.71
2022-09-14T21:31:30.296Z,21.69
2022-09-14T21:33:59.173Z,21.69
2022-09-14T21:36:29.365Z,21.73
2022-09-14T21:38:59.877Z,21.72
2022-09-14T21:41:32.146Z,21.64
2022-09-14T21:43:59.163Z,21.53
2022-09-14T21:46:26.523Z,21.39
2022-09-14T21:48:54.831Z,21.38
2022-09-14T21:51:33.055Z,21.31
2022-09-14T21:54:03.067Z,21.34
2022-09-14T21:56:32.357Z,21.33
2022-09-14T21:59:01.429Z,21.28
2022-09-14T22:01:29.429Z,21.24
2022-09-14T22:03:57.521Z,21.22
2022-09-14T22:06:27.401Z,21.20
2022-09-14T22:08:54.490Z,21.18
2022-09-14T22:11:24.916Z,21.22
2022-09-14T22:14:02.417Z,21.22
2022-09-14T22:16:33.498Z,21.20
2022-09-14T22:19:04.190Z,21.18
2022-09-14T22:21:34.153Z,21.19
2022-09-14T22:24:02.950Z,21.20
2022-09-14T22:26:31.576Z,21.14
2022-09-14T22:28:59.310Z,21.17
2022-09-14T22:31:27.550Z,21.16
2022-09-14T22:33:55.882Z,21.15
2022-09-14T22:36:23.758Z,21.12
2022-09-14T22:38:50.588Z,21.15
2022-09-14T22:41:20.913Z,21.32
2022-09-14T22:43:48.534Z,21.43
2022-09-14T22:46:17.059Z,21.59
2022-09-14T22:48:44.375Z,21.71
2022-09-14T22:51:15.387Z,21.87
2022-09-14T22:53:42.498Z,22.07
2022-09-14T22:56:13.679Z,22.18
2022-09-14T22:58:40.377Z,22.40
2022-09-14T23:01:08.237Z,22.55
2022-09-14T23:03:35.482Z,22.62
2022-09-14T23:06:03.210Z,22.68
2022-09-14T23:08:30.187Z,22.74
2022-09-14T23:10:57.458Z,22.76
2022-09-14T23:13:24.133Z,22.77
2022-09-14T23:15:50.722Z,22.82
2022-09-14T23:18:17.435Z,22.85
2022-09-14T23:20:44.850Z,22.88
2022-09-14T23:23:12.583Z,22.90
2022-09-14T23:25:41.256Z,22.92
2022-09-14T23:28:10.947Z,22.93
2022-09-14T23:30:37.951Z,22.92
2022-09-14T23:33:04.771Z,22.98
2022-09-14T23:35:33.736Z,23.03
2022-09-14T23:38:03.658Z,22.96
2022-09-14T23:40:30.326Z,22.93
2022-09-14T23:42:57.138Z,22.88
2022-09-14T23:45:23.883Z,22.81
2022-09-14T23:47:50.449Z,22.74
2022-09-14T23:50:17.284Z,22.59
2022-09-14T23:52:43.977Z,22.55
2022-09-14T23:55:10.617Z,22.47
2022-09-14T23:57:37.997Z,22.42
